Time;durP1;ratioP1;P1;durP2;ratioP2;P2;SDS_P1;SDS_P2;PMS_P1;PMS_P2;Temp;Humidity;BMP_temperature;BMP_pressure;BME280_temperature;BME280_humidity;BME280_pressure;Samples;Min_cycle;Max_cycle;Signal;HPM_P1;HPM_P2
2022/01/30 00:03:10;;;;;;;8.20;2.10;;;23.00;53.00;;;;;;221256;1265;22547;-56
2022/01/30 00:08:16;;;;;;;3.80;1.60;;;23.10;52.60;;;;;;221111;1265;25371;-56
2022/01/30 00:13:26;;;;;;;3.60;1.60;;;23.20;52.30;;;;;;220433;1265;25328;-57
2022/01/30 00:23:59;;;;;;;3.70;1.50;;;23.30;52.00;;;;;;220870;1265;22626;-56
2022/01/30 00:29:08;;;;;;;4.70;1.40;;;23.30;52.00;;;;;;220738;1265;24218;-57
2022/01/30 00:34:12;;;;;;;3.40;1.50;;;23.40;51.80;;;;;;220652;1265;25364;-55
2022/01/30 00:39:22;;;;;;;4.80;1.70;;;23.30;52.20;;;;;;220646;1265;22621;-57
2022/01/30 00:44:28;;;;;;;6.70;1.80;;;23.30;52.40;;;;;;221321;1265;22566;-55
2022/01/30 00:49:32;;;;;;;9.00;1.80;;;23.40;52.50;;;;;;221015;1265;22549;-56
2022/01/30 00:54:35;;;;;;;4.40;1.50;;;23.30;52.20;;;;;;220634;1265;22534;-55
2022/01/30 00:59:39;;;;;;;3.30;1.30;;;23.30;51.90;;;;;;220727;1267;22563;-57
2022/01/30 01:04:44;;;;;;;4.70;1.50;;;23.30;51.70;;;;;;220609;1265;22557;-52
2022/01/30 01:10:03;;;;;;;3.60;1.50;;;23.30;51.50;;;;;;221199;1265;22657;-56
2022/01/30 01:25:57;;;;;;;3.80;1.50;;;23.30;51.00;;;;;;220935;1265;22579;-55
2022/01/30 01:31:02;;;;;;;3.50;1.50;;;23.40;50.90;;;;;;220780;1268;24378;-57
2022/01/30 01:36:06;;;;;;;3.40;1.40;;;23.30;50.70;;;;;;221305;1265;22566;-56
2022/01/30 01:41:11;;;;;;;3.80;1.30;;;23.40;50.80;;;;;;220316;1265;24309;-56
2022/01/30 01:46:21;;;;;;;3.20;1.40;;;23.40;50.70;;;;;;220908;1265;24982;-58
2022/01/30 01:51:30;;;;;;;3.10;1.30;;;23.40;50.80;;;;;;221075;1265;25574;-52
2022/01/30 01:56:42;;;;;;;4.10;1.70;;;23.40;51.10;;;;;;220584;1265;25425;-54
2022/01/30 02:01:54;;;;;;;5.90;1.90;;;23.30;50.40;;;;;;221258;1265;24779;-55
2022/01/30 02:07:50;;;;;;;4.00;1.50;;;23.40;50.40;;;;;;221642;1265;22590;-57
2022/01/30 02:12:35;;;;;;;5.50;1.40;;;23.40;50.20;;;;;;221597;1265;22540;-56
2022/01/30 02:28:11;;;;;;;3.40;1.50;;;23.30;50.40;;;;;;221017;1265;22779;-56
2022/01/30 02:33:16;;;;;;;3.60;1.30;;;23.30;50.40;;;;;;221041;1263;24315;-56
2022/01/30 02:38:21;;;;;;;4.10;1.60;;;23.30;50.00;;;;;;221116;1262;25310;-57
2022/01/30 02:43:32;;;;;;;5.60;1.60;;;23.40;50.20;;;;;;221094;1262;24217;-56
2022/01/30 02:48:54;;;;;;;3.20;1.30;;;23.40;50.00;;;;;;220993;1265;22538;-57
2022/01/30 02:54:05;;;;;;;3.80;1.30;;;23.30;50.00;;;;;;220969;1265;24045;-57
2022/01/30 02:59:13;;;;;;;4.70;1.40;;;23.30;49.90;;;;;;221013;1265;25327;-56
2022/01/30 03:04:17;;;;;;;3.40;1.50;;;23.30;49.70;;;;;;220940;1265;26290;-55
2022/01/30 03:09:23;;;;;;;3.20;1.50;;;23.40;50.40;;;;;;220860;1265;22642;-56
2022/01/30 03:14:27;;;;;;;5.50;1.70;;;23.40;50.00;;;;;;220878;1265;22560;-52
2022/01/30 03:19:31;;;;;;;3.60;1.30;;;23.40;49.70;;;;;;220783;1268;22543;-54
2022/01/30 03:24:37;;;;;;;4.70;1.40;;;23.50;50.30;;;;;;220773;1265;24299;-56
2022/01/30 03:30:13;;;;;;;;;;;23.40;50.00;;;;;;220223;1265;22512;-57
2022/01/30 03:35:49;;;;;;;4.70;1.20;;;23.40;49.50;;;;;;220936;1265;22734;-58
2022/01/30 03:40:57;;;;;;;3.50;1.40;;;23.40;49.70;;;;;;221320;1267;23168;-56
2022/01/30 03:46:05;;;;;;;3.60;1.20;;;23.40;49.60;;;;;;221069;1263;22534;-56
2022/01/30 03:51:09;;;;;;;4.60;1.50;;;23.50;49.60;;;;;;221198;1262;24313;-57
2022/01/30 03:56:12;;;;;;;2.50;1.20;;;23.50;49.70;;;;;;221262;1263;25345;-55
2022/01/30 04:01:17;;;;;;;3.00;1.40;;;23.60;49.10;;;;;;220899;1262;22541;-56
2022/01/30 04:06:22;;;;;;;3.20;1.50;;;23.60;49.40;;;;;;220860;1267;22696;-56
2022/01/30 04:11:29;;;;;;;4.60;1.90;;;23.60;49.20;;;;;;221117;1265;24221;-56
2022/01/30 04:16:41;;;;;;;3.70;1.10;;;23.60;49.00;;;;;;220971;1265;25474;-55
2022/01/30 04:22:21;;;;;;;2.60;1.10;;;23.60;49.40;;;;;;220050;1265;22550;-57
2022/01/30 04:27:47;;;;;;;3.00;1.30;;;23.60;49.00;;;;;;220976;1265;22546;-56
2022/01/30 04:33:08;;;;;;;4.00;1.40;;;23.60;48.70;;;;;;221134;1263;23993;-56
2022/01/30 04:38:54;;;;;;;4.30;1.40;;;23.60;49.30;;;;;;220899;1265;22534;-58
2022/01/30 04:56:57;;;;;;;2.90;1.20;;;23.60;49.00;;;;;;221164;1265;22618;-57
2022/01/30 05:12:45;;;;;;;3.90;1.40;;;23.70;48.80;;;;;;221269;1266;22538;-57
2022/01/30 05:18:25;;;;;;;4.50;1.20;;;23.60;48.60;;;;;;220222;1266;22548;-55
2022/01/30 05:23:48;;;;;;;4.00;1.30;;;23.60;48.40;;;;;;221108;1265;24195;-55
2022/01/30 05:29:04;;;;;;;2.80;1.00;;;23.60;48.80;;;;;;221226;1265;25559;-55
2022/01/30 05:34:28;;;;;;;3.80;1.20;;;23.60;48.10;;;;;;221221;1265;24421;-56
2022/01/30 05:39:46;;;;;;;2.90;1.50;;;23.70;48.30;;;;;;221233;1265;25332;-55
2022/01/30 05:45:31;;;;;;;3.00;1.50;;;23.70;48.00;;;;;;220707;1265;23034;-54
2022/01/30 05:50:55;;;;;;;3.70;1.50;;;23.70;48.10;;;;;;221063;1265;22631;-53
2022/01/30 05:56:11;;;;;;;3.80;1.60;;;23.60;48.30;;;;;;220544;1265;22611;-56
2022/01/30 06:01:14;;;;;;;3.80;1.10;;;23.60;47.90;;;;;;220940;1265;181756;-58
2022/01/30 06:06:18;;;;;;;6.20;1.40;;;23.60;48.10;;;;;;220889;1265;22542;-56
2022/01/30 06:11:22;;;;;;;3.40;1.30;;;23.60;47.80;;;;;;221014;1265;22721;-56
2022/01/30 06:16:25;;;;;;;4.20;1.80;;;23.60;48.10;;;;;;220847;1265;25472;-57
2022/01/30 06:21:29;;;;;;;3.20;1.30;;;23.70;47.90;;;;;;221038;1265;23052;-57
2022/01/30 06:26:53;;;;;;;4.30;1.60;;;23.70;48.00;;;;;;220744;1268;24296;-56
2022/01/30 06:32:35;;;;;;;3.10;1.20;;;23.80;47.90;;;;;;221233;1267;22617;-56
2022/01/30 06:37:58;;;;;;;3.00;1.20;;;23.80;48.20;;;;;;220860;1267;25624;-59
2022/01/30 06:43:14;;;;;;;2.90;1.20;;;23.80;47.80;;;;;;220937;1265;25528;-55
2022/01/30 06:48:37;;;;;;;3.50;1.20;;;23.80;47.90;;;;;;221236;1265;23563;-58
2022/01/30 06:53:59;;;;;;;5.50;1.50;;;23.70;47.70;;;;;;221137;1265;22532;-56
2022/01/30 06:59:18;;;;;;;4.50;1.50;;;23.70;47.40;;;;;;221287;1265;22566;-56
2022/01/30 07:04:48;;;;;;;3.00;1.60;;;23.60;47.60;;;;;;221059;1266;22528;-60
2022/01/30 07:10:06;;;;;;;2.60;1.10;;;23.60;47.80;;;;;;220799;1265;22594;-57
2022/01/30 07:15:10;;;;;;;5.80;1.50;;;23.60;48.10;;;;;;221591;1265;24682;-54
2022/01/30 07:20:14;;;;;;;2.80;1.10;;;23.60;47.80;;;;;;221140;1265;25355;-57
2022/01/30 07:25:18;;;;;;;3.70;1.30;;;23.60;48.50;;;;;;221281;1268;25628;-57
2022/01/30 07:30:22;;;;;;;2.60;1.20;;;23.60;47.90;;;;;;221337;1265;22534;-55
2022/01/30 07:35:26;;;;;;;5.10;1.30;;;23.60;47.90;;;;;;221044;1262;25471;-57
2022/01/30 07:40:32;;;;;;;4.30;1.30;;;23.60;47.80;;;;;;220974;1265;24230;-56
2022/01/30 07:45:36;;;;;;;2.70;1.00;;;23.60;48.00;;;;;;221485;1265;25385;-56
2022/01/30 07:50:41;;;;;;;3.60;1.50;;;23.60;48.20;;;;;;221163;1265;25442;-53
2022/01/30 07:55:45;;;;;;;4.60;1.40;;;23.60;48.10;;;;;;220931;1265;22524;-56
2022/01/30 08:00:49;;;;;;;3.70;1.30;;;23.60;48.00;;;;;;221541;1265;22984;-56
2022/01/30 08:05:53;;;;;;;2.90;1.10;;;23.60;48.00;;;;;;221328;1265;25421;-55
2022/01/30 08:10:58;;;;;;;2.60;1.20;;;23.60;48.10;;;;;;221002;1262;24366;-58
2022/01/30 08:16:05;;;;;;;5.20;1.50;;;23.60;48.30;;;;;;221111;1265;22727;-56
2022/01/30 08:21:14;;;;;;;5.00;1.30;;;23.60;47.40;;;;;;220977;1262;22732;-57
2022/01/30 08:26:18;;;;;;;2.40;0.90;;;23.60;48.10;;;;;;221096;1265;24252;-56
2022/01/30 08:31:25;;;;;;;3.70;1.20;;;23.60;48.10;;;;;;221292;1262;25519;-56
2022/01/30 08:36:30;;;;;;;3.70;1.20;;;23.60;48.00;;;;;;221085;1262;25308;-57
2022/01/30 08:41:33;;;;;;;5.70;1.40;;;23.70;48.30;;;;;;221024;1265;22591;-57
2022/01/30 08:46:44;;;;;;;10.00;1.50;;;23.70;48.40;;;;;;221162;1262;22594;-58
2022/01/30 08:51:48;;;;;;;13.30;1.90;;;23.70;48.50;;;;;;221558;1265;22823;-56
2022/01/30 08:56:53;;;;;;;4.30;1.20;;;23.80;48.80;;;;;;221368;1263;22649;-57
2022/01/30 09:02:02;;;;;;;7.70;2.00;;;23.70;49.20;;;;;;226620;1262;22412;-50
2022/01/30 09:07:10;;;;;;;4.20;1.40;;;23.70;49.00;;;;;;224542;1262;22678;-53
2022/01/30 09:12:17;;;;;;;3.90;1.40;;;23.80;49.20;;;;;;221087;1265;24256;-55
2022/01/30 09:17:22;;;;;;;3.30;1.30;;;23.70;49.10;;;;;;220998;1265;22544;-56
2022/01/30 09:22:33;;;;;;;4.80;1.40;;;23.70;49.30;;;;;;220958;1262;24356;-57
2022/01/30 09:27:37;;;;;;;5.70;1.50;;;23.80;49.50;;;;;;221144;1263;22545;-57
2022/01/30 09:32:44;;;;;;;5.70;1.40;;;23.80;49.30;;;;;;220829;1265;24311;-55
2022/01/30 09:37:48;;;;;;;9.50;2.00;;;23.80;49.90;;;;;;221021;1262;23076;-54
2022/01/30 09:42:52;;;;;;;6.30;1.70;;;23.60;50.60;;;;;;220594;1265;23147;-58
2022/01/30 09:48:00;;;;;;;5.50;1.40;;;23.50;50.90;;;;;;221072;1262;24311;-60
2022/01/30 09:53:06;;;;;;;5.20;1.40;;;23.30;50.90;;;;;;221153;1262;22553;-59
2022/01/30 09:58:09;;;;;;;5.80;1.60;;;23.20;50.60;;;;;;220886;1265;24255;-50
2022/01/30 10:03:22;;;;;;;4.50;1.50;;;23.10;51.10;;;;;;221073;1262;24296;-53
2022/01/30 10:08:28;;;;;;;3.00;1.30;;;23.10;50.70;;;;;;221188;1262;22543;-49
2022/01/30 10:13:34;;;;;;;4.40;1.40;;;23.00;50.80;;;;;;220928;1262;25200;-54
2022/01/30 10:18:45;;;;;;;4.60;1.50;;;22.80;51.20;;;;;;221026;1262;25264;-51
2022/01/30 10:23:48;;;;;;;6.50;1.20;;;22.70;51.60;;;;;;221214;1265;25346;-52
2022/01/30 10:28:52;;;;;;;6.60;1.50;;;22.60;52.10;;;;;;221091;1265;26563;-55
2022/01/30 10:33:57;;;;;;;5.00;1.40;;;22.50;51.70;;;;;;220887;1265;22594;-55
2022/01/30 10:39:16;;;;;;;6.50;1.60;;;22.40;52.00;;;;;;219789;1265;22543;-54
2022/01/30 10:44:20;;;;;;;6.30;1.40;;;22.50;52.00;;;;;;220795;1262;22584;-50
2022/01/30 10:49:24;;;;;;;4.40;1.40;;;22.40;52.50;;;;;;220774;1262;26493;-53
2022/01/30 10:54:33;;;;;;;6.50;1.60;;;22.30;52.00;;;;;;221063;1262;24249;-53
2022/01/30 10:59:52;;;;;;;3.40;1.20;;;22.30;52.50;;;;;;220762;1264;22540;-52
2022/01/30 11:05:07;;;;;;;3.80;1.30;;;22.20;52.60;;;;;;220970;1265;22588;-54
2022/01/30 11:10:24;;;;;;;4.70;1.50;;;22.10;52.80;;;;;;220969;1262;25267;-52
2022/01/30 11:20:34;;;;;;;4.30;1.40;;;22.80;51.30;;;;;;220929;1262;23498;-56
2022/01/30 11:25:47;;;;;;;4.80;1.50;;;23.00;50.80;;;;;;220933;1263;24297;-57
2022/01/30 11:30:53;;;;;;;3.10;1.50;;;23.20;50.10;;;;;;220786;1265;22612;-54
2022/01/30 11:35:58;;;;;;;8.00;1.40;;;23.30;50.00;;;;;;225622;1262;22429;-56
2022/01/30 11:41:16;;;;;;;7.00;1.50;;;23.40;50.00;;;;;;224083;1262;22593;-53
2022/01/30 11:46:19;;;;;;;3.50;1.10;;;23.40;49.70;;;;;;228789;1262;22438;-56
2022/01/30 11:51:24;;;;;;;9.00;1.70;;;23.50;50.40;;;;;;225169;1262;22531;-52
2022/01/30 11:56:49;;;;;;;8.20;1.70;;;23.50;50.30;;;;;;220893;1262;24220;-56
2022/01/30 12:02:30;;;;;;;3.50;1.20;;;23.40;50.00;;;;;;222779;1264;22574;-55
2022/01/30 12:07:40;;;;;;;7.80;1.50;;;23.50;50.10;;;;;;221630;1262;25491;-53
2022/01/30 12:12:56;;;;;;;4.30;1.60;;;23.50;50.10;;;;;;220741;1262;23100;-56
2022/01/30 12:18:03;;;;;;;5.40;2.00;;;23.50;50.10;;;;;;220661;1265;24358;-55
2022/01/30 12:23:25;;;;;;;4.30;1.40;;;23.50;50.30;;;;;;221051;1262;23589;-56
2022/01/30 12:28:52;;;;;;;5.80;1.70;;;23.50;50.20;;;;;;220721;1263;22551;-54
2022/01/30 12:34:14;;;;;;;5.20;1.20;;;23.50;50.10;;;;;;221241;1262;22557;-54
2022/01/30 12:39:21;;;;;;;6.40;1.80;;;23.50;50.00;;;;;;221192;1262;26507;-53
2022/01/30 12:44:35;;;;;;;7.00;1.60;;;23.60;49.50;;;;;;221082;1262;24252;-50
2022/01/30 12:49:59;;;;;;;5.80;1.60;;;23.50;49.90;;;;;;220951;1262;22646;-53
2022/01/30 12:55:11;;;;;;;3.50;1.80;;;23.60;50.20;;;;;;221183;1262;22597;-54
2022/01/30 13:00:16;;;;;;;5.20;1.80;;;23.60;49.80;;;;;;221551;1262;22697;-55
2022/01/30 13:05:30;;;;;;;4.10;1.40;;;23.60;50.00;;;;;;221082;1262;24312;-54
2022/01/30 13:10:47;;;;;;;5.40;1.60;;;23.60;49.80;;;;;;220722;1264;24408;-55
2022/01/30 13:15:57;;;;;;;4.60;1.40;;;23.70;49.80;;;;;;221018;1265;25980;-53
2022/01/30 13:21:09;;;;;;;5.20;2.00;;;23.80;50.60;;;;;;220821;1265;24394;-55
2022/01/30 13:26:36;;;;;;;3.90;1.50;;;23.80;50.60;;;;;;220858;1265;22531;-54
2022/01/30 13:31:51;;;;;;;8.00;1.70;;;23.80;49.60;;;;;;220872;1265;23975;-56
2022/01/30 13:37:19;;;;;;;6.50;1.50;;;23.80;49.60;;;;;;220780;1265;24221;-54
2022/01/30 13:48:07;;;;;;;4.80;2.00;;;23.90;49.80;;;;;;220459;1265;22604;-57
2022/01/30 13:53:12;;;;;;;6.50;1.80;;;23.80;50.30;;;;;;220251;1265;22570;-57
2022/01/30 13:58:20;;;;;;;17.20;2.60;;;23.80;49.80;;;;;;220294;1267;22732;-54
2022/01/30 14:03:30;;;;;;;4.30;1.70;;;23.80;50.00;;;;;;220235;1267;22763;-57
2022/01/30 14:08:47;;;;;;;9.10;2.50;;;23.60;49.80;;;;;;220700;1267;22707;-56
2022/01/30 14:14:09;;;;;;;17.20;2.50;;;23.50;50.60;;;;;;220535;1267;22553;-55
2022/01/30 14:19:16;;;;;;;12.00;1.90;;;23.50;50.80;;;;;;220584;1267;25645;-56
2022/01/30 14:24:27;;;;;;;9.60;2.50;;;23.40;51.40;;;;;;220594;1267;25464;-56
2022/01/30 14:29:32;;;;;;;11.50;2.30;;;23.30;51.60;;;;;;220494;1267;22544;-56
2022/01/30 14:34:38;;;;;;;6.00;1.80;;;23.20;51.90;;;;;;220792;1267;23997;-59
2022/01/30 14:39:42;;;;;;;6.20;2.30;;;23.10;52.10;;;;;;220415;1267;22559;-61
2022/01/30 14:44:49;;;;;;;12.70;2.20;;;23.10;52.30;;;;;;220594;1267;25362;-57
2022/01/30 14:49:53;;;;;;;11.60;2.90;;;23.00;52.80;;;;;;221206;1265;22540;-56
2022/01/30 14:54:57;;;;;;;8.30;2.50;;;22.90;52.60;;;;;;221144;1264;24204;-57
2022/01/30 15:00:22;;;;;;;5.50;1.90;;;22.70;53.80;;;;;;221151;1265;25535;-56
2022/01/30 15:05:41;;;;;;;8.30;2.30;;;22.70;54.70;;;;;;221082;1265;24206;-53
2022/01/30 15:10:47;;;;;;;7.50;2.10;;;22.60;54.90;;;;;;221304;1265;22552;-54
2022/01/30 15:15:52;;;;;;;10.20;2.20;;;22.60;54.90;;;;;;221024;1265;24261;-54
2022/01/30 15:20:56;;;;;;;8.90;2.00;;;22.50;54.90;;;;;;221154;1265;23846;-55
2022/01/30 15:26:08;;;;;;;6.70;2.30;;;22.50;54.80;;;;;;221478;1265;22655;-58
2022/01/30 15:31:12;;;;;;;5.90;1.90;;;22.50;54.80;;;;;;220720;1264;24269;-57
2022/01/30 15:36:16;;;;;;;7.60;2.00;;;22.40;54.70;;;;;;221207;1265;22594;-58
2022/01/30 15:41:26;;;;;;;9.30;2.60;;;22.30;54.80;;;;;;221375;1265;24291;-58
2022/01/30 15:52:07;;;;;;;8.20;2.10;;;22.20;54.50;;;;;;220858;1265;22695;-59
2022/01/30 15:57:13;;;;;;;5.90;1.80;;;22.20;54.50;;;;;;220710;1265;24226;-57
2022/01/30 16:02:25;;;;;;;9.30;2.00;;;22.10;54.90;;;;;;220452;1264;22537;-55
2022/01/30 16:07:43;;;;;;;5.90;1.90;;;22.10;54.50;;;;;;221039;1265;25570;-61
2022/01/30 16:18:21;;;;;;;9.50;2.30;;;22.10;54.80;;;;;;221059;1264;25266;-58
2022/01/30 16:23:25;;;;;;;12.40;2.70;;;22.10;55.50;;;;;;221202;1265;22579;-61
2022/01/30 16:29:09;;;;;;;;;;;;;;;;;;;;;
2022/01/30 16:34:40;;;;;;;9.90;2.00;;;22.00;55.40;;;;;;220958;1265;22547;-60
2022/01/30 16:40:01;;;;;;;12.10;2.30;;;22.00;55.20;;;;;;221070;1265;24143;-59
2022/01/30 16:45:31;;;;;;;6.80;1.90;;;21.90;55.10;;;;;;221050;1265;24246;-58
2022/01/30 16:50:38;;;;;;;9.90;2.70;;;21.90;55.10;;;;;;220690;1264;24436;-59
2022/01/30 16:56:02;;;;;;;10.00;2.20;;;21.80;55.40;;;;;;220776;1265;23056;-58
2022/01/30 17:01:22;;;;;;;6.60;2.10;;;21.70;55.40;;;;;;220637;1265;23162;-59
2022/01/30 17:06:52;;;;;;;7.40;2.00;;;21.80;56.00;;;;;;220364;1265;22551;-60
2022/01/30 17:12:33;;;;;;;6.30;1.80;;;22.30;54.00;;;;;;220999;1265;23670;-59
2022/01/30 17:17:41;;;;;;;6.00;2.00;;;22.70;53.40;;;;;;221112;1265;22839;-59
2022/01/30 17:22:46;;;;;;;5.40;1.80;;;22.90;52.60;;;;;;221093;1265;22537;-60
2022/01/30 17:28:08;;;;;;;8.70;2.10;;;22.80;52.30;;;;;;221148;1265;22624;-61
2022/01/30 17:33:15;;;;;;;10.50;1.80;;;23.00;52.00;;;;;;221163;1265;22539;-60
2022/01/30 17:38:24;;;;;;;6.90;2.30;;;23.20;51.70;;;;;;221046;1265;24245;-57
2022/01/30 17:43:28;;;;;;;6.50;1.50;;;23.30;51.70;;;;;;220709;1265;25258;-59
2022/01/30 17:48:35;;;;;;;9.80;2.00;;;23.30;51.10;;;;;;220719;1265;25946;-58
2022/01/30 17:53:39;;;;;;;11.50;2.00;;;23.30;51.20;;;;;;221108;1265;25490;-59
2022/01/30 17:58:44;;;;;;;6.30;2.20;;;23.30;51.60;;;;;;220750;1265;391205;-59
2022/01/30 18:03:51;;;;;;;6.90;2.00;;;23.20;51.60;;;;;;220746;1265;22707;-62
2022/01/30 18:09:06;;;;;;;7.60;2.10;;;23.10;51.90;;;;;;221069;1265;24252;-58
2022/01/30 18:14:10;;;;;;;8.00;2.30;;;23.00;51.80;;;;;;221162;1265;22558;-61
2022/01/30 18:19:14;;;;;;;6.40;2.00;;;22.80;52.20;;;;;;220282;1267;22622;-61
2022/01/30 18:24:34;;;;;;;5.80;1.70;;;22.60;52.70;;;;;;221253;1265;25551;-58
2022/01/30 18:30:07;;;;;;;;;;;;;;;;;;;;;
2022/01/30 18:35:14;;;;;;;7.40;1.90;;;22.20;53.80;;;;;;220972;1262;24316;-60
2022/01/30 18:40:37;;;;;;;9.70;2.30;;;22.10;53.80;;;;;;221142;1262;22624;-59
2022/01/30 18:45:41;;;;;;;4.70;1.90;;;22.00;54.30;;;;;;221093;1262;25331;-60
2022/01/30 18:51:13;;;;;;;9.00;2.10;;;21.90;54.90;;;;;;221086;1262;24217;-59
2022/01/30 18:56:21;;;;;;;7.40;1.80;;;21.90;54.20;;;;;;221373;1262;25395;-58
2022/01/30 19:01:26;;;;;;;7.40;1.70;;;21.90;54.50;;;;;;221142;1262;22998;-51
2022/01/30 19:06:41;;;;;;;6.10;1.80;;;22.00;54.20;;;;;;221317;1262;22595;-51
2022/01/30 19:11:53;;;;;;;6.90;1.90;;;22.20;53.80;;;;;;220984;1262;24405;-57
2022/01/30 19:17:00;;;;;;;7.40;2.10;;;22.60;52.90;;;;;;221073;1265;22598;-51
2022/01/30 19:22:05;;;;;;;5.90;1.70;;;22.90;52.00;;;;;;221049;1265;25601;-51
2022/01/30 19:27:23;;;;;;;6.60;2.30;;;23.10;52.00;;;;;;221258;1262;22547;-52
2022/01/30 19:32:28;;;;;;;9.50;2.00;;;23.30;51.00;;;;;;221258;1262;25384;-51
2022/01/30 19:38:10;;;;;;;11.60;2.80;;;23.50;50.60;;;;;;220934;1265;25511;-53
2022/01/30 19:43:16;;;;;;;9.20;2.20;;;23.50;50.40;;;;;;221210;1265;22553;-49
2022/01/30 19:48:37;;;;;;;5.70;1.60;;;23.50;50.60;;;;;;221205;1262;26545;-50
2022/01/30 19:53:45;;;;;;;12.10;2.50;;;23.50;50.30;;;;;;220524;1265;25628;-51
2022/01/30 19:58:50;;;;;;;13.20;2.20;;;23.60;51.10;;;;;;221159;1262;22552;-50
2022/01/30 20:03:58;;;;;;;19.90;2.80;;;23.40;51.80;;;;;;221353;1262;22595;-53
2022/01/30 20:09:06;;;;;;;31.10;3.70;;;23.30;52.20;;;;;;220986;1265;24465;-57
2022/01/30 20:14:24;;;;;;;35.70;4.20;;;23.50;51.90;;;;;;221341;1262;22603;-60
2022/01/30 20:19:29;;;;;;;50.30;4.90;;;23.60;52.10;;;;;;221435;1262;22557;-58
2022/01/30 20:24:43;;;;;;;51.30;4.40;;;23.60;52.00;;;;;;220860;1265;22667;-61
2022/01/30 20:30:00;;;;;;;63.40;6.30;;;23.60;51.90;;;;;;220994;1262;22567;-58
2022/01/30 20:35:10;;;;;;;65.00;6.80;;;23.60;51.80;;;;;;220615;1265;24224;-59
2022/01/30 20:40:21;;;;;;;43.50;5.30;;;23.60;51.30;;;;;;221106;1265;23481;-58
2022/01/30 20:45:32;;;;;;;44.10;4.90;;;23.60;51.60;;;;;;221032;1262;24244;-59
2022/01/30 20:50:39;;;;;;;30.70;4.60;;;23.70;51.50;;;;;;220986;1262;22553;-59
2022/01/30 20:55:45;;;;;;;37.70;5.50;;;23.70;50.60;;;;;;221080;1262;24281;-60
2022/01/30 21:00:50;;;;;;;31.60;5.10;;;23.70;50.30;;;;;;221191;1262;25569;-57
2022/01/30 21:05:58;;;;;;;26.90;5.00;;;23.60;50.30;;;;;;221094;1263;24252;-58
2022/01/30 21:11:03;;;;;;;31.60;4.20;;;23.50;50.80;;;;;;221292;1262;22567;-59
2022/01/30 21:16:07;;;;;;;28.20;4.80;;;23.40;50.70;;;;;;220582;1262;22726;-60
2022/01/30 21:21:23;;;;;;;25.20;4.30;;;23.40;51.20;;;;;;220983;1262;22704;-58
2022/01/30 21:26:36;;;;;;;14.40;3.80;;;23.20;51.00;;;;;;221044;1265;24369;-61
2022/01/30 21:31:48;;;;;;;22.90;5.20;;;23.10;51.30;;;;;;221158;1263;24300;-59
2022/01/30 21:37:03;;;;;;;29.30;4.50;;;23.20;51.10;;;;;;221510;1265;24309;-58
2022/01/30 21:42:30;;;;;;;23.50;5.20;;;23.40;50.80;;;;;;221003;1262;26873;-59
2022/01/30 21:47:43;;;;;;;27.70;4.60;;;23.50;50.60;;;;;;220785;1265;22697;-59
2022/01/30 21:53:21;;;;;;;20.30;4.00;;;23.60;50.30;;;;;;221397;1262;22606;-61
2022/01/30 21:59:06;;;;;;;14.70;3.40;;;23.70;50.30;;;;;;220776;1265;26067;-57
2022/01/30 22:04:11;;;;;;;13.30;4.00;;;23.80;50.60;;;;;;221076;1262;22578;-59
2022/01/30 22:09:23;;;;;;;15.90;3.70;;;23.70;50.30;;;;;;221053;1262;25868;-58
2022/01/30 22:14:41;;;;;;;19.20;4.00;;;23.80;50.60;;;;;;220926;1265;25512;-61
2022/01/30 22:19:51;;;;;;;19.40;3.90;;;23.70;50.50;;;;;;221110;1262;25321;-57
2022/01/30 22:24:57;;;;;;;22.70;4.00;;;23.80;50.20;;;;;;221066;1267;22569;-58
2022/01/30 22:30:09;;;;;;;16.40;3.50;;;23.90;51.90;;;;;;221019;1262;22829;-60
2022/01/30 22:35:14;;;;;;;13.40;3.20;;;23.90;52.10;;;;;;221142;1265;26500;-59
2022/01/30 22:40:23;;;;;;;13.30;3.90;;;23.90;52.20;;;;;;221395;1265;22560;-58
2022/01/30 22:45:33;;;;;;;15.20;3.40;;;23.80;51.60;;;;;;220958;1262;24300;-59
2022/01/30 22:50:40;;;;;;;8.10;2.70;;;23.80;51.80;;;;;;221120;1265;25506;-59
2022/01/30 22:55:44;;;;;;;13.90;3.10;;;23.60;52.20;;;;;;221277;1266;28640;-58
2022/01/30 23:00:51;;;;;;;9.70;3.00;;;23.40;53.00;;;;;;221101;1261;24225;-59
2022/01/30 23:05:55;;;;;;;11.90;3.00;;;23.20;53.00;;;;;;221039;1265;22743;-57
2022/01/30 23:10:59;;;;;;;13.10;3.30;;;23.00;53.20;;;;;;221042;1262;22553;-57
2022/01/30 23:16:03;;;;;;;13.70;2.80;;;22.90;53.70;;;;;;220914;1262;22538;-58
2022/01/30 23:21:08;;;;;;;15.70;3.40;;;23.00;53.60;;;;;;221159;1263;22920;-56
2022/01/30 23:26:13;;;;;;;10.50;3.30;;;22.90;53.50;;;;;;221279;1262;25503;-57
2022/01/30 23:31:22;;;;;;;10.30;3.10;;;22.80;53.70;;;;;;221153;1267;23158;-55
2022/01/30 23:36:26;;;;;;;6.30;2.40;;;22.70;53.80;;;;;;221008;1265;23065;-56
2022/01/30 23:41:33;;;;;;;12.60;3.40;;;22.50;54.20;;;;;;221215;1265;22544;-57
2022/01/30 23:46:37;;;;;;;11.40;2.90;;;22.60;54.20;;;;;;221314;1265;22555;-59
2022/01/30 23:51:41;;;;;;;9.30;3.00;;;22.50;54.40;;;;;;220748;1265;25375;-57
2022/01/30 23:56:45;;;;;;;8.70;2.90;;;22.40;54.60;;;;;;220893;1265;22560;-57
